createdAt,value
2017-12-26T00:00:31.531Z,99874.32
2017-12-26T00:02:58.919Z,99868.19
2017-12-26T00:05:26.299Z,99856.16
2017-12-26T00:07:53.690Z,99857.53
2017-12-26T00:10:21.067Z,99857.20
2017-12-26T00:12:48.508Z,99850.21
2017-12-26T00:15:16.868Z,99830.64
2017-12-26T00:17:44.254Z,99840.61
2017-12-26T00:20:11.681Z,99835.66
2017-12-26T00:22:39.231Z,99820.34
2017-12-26T00:25:06.594Z,99824.69
2017-12-26T00:27:34.023Z,99804.56
2017-12-26T00:30:01.399Z,99797.27
2017-12-26T00:32:28.817Z,99800.11
2017-12-26T00:34:56.198Z,99787.08
2017-12-26T00:37:23.590Z,99789.39
2017-12-26T00:39:51.075Z,99782.44
2017-12-26T00:42:18.463Z,99783.38
2017-12-26T00:44:45.851Z,99775.31
2017-12-26T00:47:13.375Z,99770.48
2017-12-26T00:49:40.758Z,99768.10
2017-12-26T00:52:08.134Z,99764.11
2017-12-26T00:54:35.510Z,99766.64
2017-12-26T00:57:02.895Z,99752.47
2017-12-26T00:59:30.285Z,99758.02
2017-12-26T01:01:57.685Z,99764.02
2017-12-26T01:04:25.074Z,99761.58
2017-12-26T01:06:52.470Z,99758.66
2017-12-26T01:09:19.847Z,99754.20
2017-12-26T01:11:47.270Z,99750.05
2017-12-26T01:14:14.666Z,99743.33
2017-12-26T01:16:42.103Z,99745.41
2017-12-26T01:19:09.500Z,99732.73
2017-12-26T01:21:36.882Z,99730.44
2017-12-26T01:24:04.278Z,99734.56
2017-12-26T01:26:31.668Z,99731.80
2017-12-26T01:28:59.049Z,99740.04
2017-12-26T01:31:26.431Z,99735.36
2017-12-26T01:33:53.806Z,99734.77
2017-12-26T01:36:21.237Z,99722.56
2017-12-26T01:38:48.587Z,99727.82
2017-12-26T01:41:15.972Z,99731.28
2017-12-26T01:43:43.358Z,99723.23
2017-12-26T01:46:22.782Z,99723.69
2017-12-26T01:48:50.150Z,99713.49
2017-12-26T01:51:17.530Z,99712.13
2017-12-26T01:53:44.923Z,99704.33
2017-12-26T01:56:12.360Z,99696.14
2017-12-26T01:58:39.746Z,99691.06
2017-12-26T02:01:07.131Z,99682.27
2017-12-26T02:03:34.523Z,99676.69
2017-12-26T02:06:01.903Z,99670.34
2017-12-26T02:08:29.287Z,99660.38
2017-12-26T02:10:56.675Z,99653.56
2017-12-26T02:13:24.065Z,99651.49
2017-12-26T02:15:51.461Z,99640.41
2017-12-26T02:18:18.879Z,99637.67
2017-12-26T02:20:46.210Z,99636.00
2017-12-26T02:23:13.598Z,99630.47
2017-12-26T02:25:40.986Z,99623.35
2017-12-26T02:28:08.375Z,99609.20
2017-12-26T02:30:35.762Z,99614.49
2017-12-26T02:33:03.162Z,99606.44
2017-12-26T02:35:30.549Z,99596.42
2017-12-26T02:37:57.931Z,99586.27
2017-12-26T02:40:25.314Z,99584.01
2017-12-26T02:42:52.720Z,99583.37
2017-12-26T02:45:20.102Z,99583.56
2017-12-26T02:47:47.491Z,99575.72
2017-12-26T02:50:14.878Z,99565.64
2017-12-26T02:52:42.270Z,99561.91
2017-12-26T02:55:09.659Z,99557.87
2017-12-26T02:57:37.050Z,99557.53
2017-12-26T03:00:04.433Z,99554.84
2017-12-26T03:02:31.819Z,99554.77
2017-12-26T03:04:59.231Z,99547.31
2017-12-26T03:07:26.621Z,99537.98
2017-12-26T03:09:53.995Z,99548.00
2017-12-26T03:12:21.390Z,99537.30
2017-12-26T03:14:48.781Z,99534.36
2017-12-26T03:17:16.275Z,99514.64
2017-12-26T03:19:43.658Z,99521.49
2017-12-26T03:22:11.049Z,99512.64
2017-12-26T03:24:38.617Z,99511.13
2017-12-26T03:27:06.007Z,99506.00
2017-12-26T03:29:33.382Z,99501.36
2017-12-26T03:32:00.778Z,99493.70
2017-12-26T03:34:28.184Z,99496.34
2017-12-26T03:36:55.569Z,99492.70
2017-12-26T03:39:22.952Z,99484.45
2017-12-26T03:41:50.337Z,99479.27
2017-12-26T03:44:17.745Z,99472.02
2017-12-26T03:46:45.343Z,99463.66
2017-12-26T03:49:12.747Z,99456.98
2017-12-26T03:51:40.131Z,99460.71
2017-12-26T03:54:07.521Z,99456.90
2017-12-26T03:56:34.906Z,99443.56
2017-12-26T03:59:02.623Z,99437.25
2017-12-26T04:01:30.035Z,99436.23
2017-12-26T04:03:57.431Z,99437.22
2017-12-26T04:06:24.819Z,99423.38
2017-12-26T04:08:52.210Z,99414.38
2017-12-26T04:11:19.687Z,99399.63
2017-12-26T04:13:47.079Z,99386.56
2017-12-26T04:16:14.528Z,99391.27
2017-12-26T04:18:41.916Z,99384.68
2017-12-26T04:21:09.303Z,99379.19
2017-12-26T04:23:36.691Z,99378.84
2017-12-26T04:26:04.074Z,99378.95
2017-12-26T04:28:31.526Z,99376.44
2017-12-26T04:30:58.862Z,99371.44
2017-12-26T04:33:26.251Z,99360.05
2017-12-26T04:35:53.635Z,99360.55
2017-12-26T04:38:21.142Z,99354.70
2017-12-26T04:40:48.479Z,99353.98
2017-12-26T04:43:15.883Z,99348.96
2017-12-26T04:45:43.258Z,99338.84
2017-12-26T04:48:10.654Z,99337.17
2017-12-26T04:50:38.046Z,99324.83
2017-12-26T04:53:05.441Z,99316.27
2017-12-26T04:55:32.852Z,99308.48
2017-12-26T04:58:00.239Z,99300.47
2017-12-26T05:00:27.636Z,99299.92
2017-12-26T05:02:55.015Z,99297.77
2017-12-26T05:05:22.402Z,99289.65
2017-12-26T05:07:49.787Z,99287.22
2017-12-26T05:10:17.167Z,99287.28
2017-12-26T05:12:44.667Z,99270.91
2017-12-26T05:15:12.052Z,99268.97
2017-12-26T05:17:39.450Z,99262.84
2017-12-26T05:20:06.830Z,99254.45
2017-12-26T05:22:34.218Z,99230.02
2017-12-26T05:25:01.599Z,99217.84
2017-12-26T05:27:28.991Z,99219.58
2017-12-26T05:29:56.374Z,99209.67
2017-12-26T05:32:23.763Z,99207.90
2017-12-26T05:34:51.171Z,99197.42
2017-12-26T05:37:18.551Z,99195.80
2017-12-26T05:39:45.959Z,99197.08
2017-12-26T05:42:13.340Z,99192.63
2017-12-26T05:44:40.736Z,99185.91
2017-12-26T05:47:08.159Z,99176.37
2017-12-26T05:49:35.548Z,99183.44
2017-12-26T05:52:02.955Z,99171.03
2017-12-26T05:54:30.338Z,99161.05
2017-12-26T05:56:57.777Z,99159.45
2017-12-26T05:59:25.166Z,99161.72
2017-12-26T06:01:52.574Z,99154.86
2017-12-26T06:04:19.968Z,99145.31
2017-12-26T06:06:47.354Z,99141.73
2017-12-26T06:09:14.745Z,99131.81
2017-12-26T06:11:42.122Z,99130.87
2017-12-26T06:14:09.515Z,99131.66
2017-12-26T06:16:36.892Z,99114.72
2017-12-26T06:19:04.279Z,99110.84
2017-12-26T06:21:31.659Z,99094.08
2017-12-26T06:23:59.095Z,99091.55
2017-12-26T06:26:26.484Z,99091.19
2017-12-26T06:28:53.870Z,99080.61
2017-12-26T06:31:21.265Z,99068.36
2017-12-26T06:33:48.655Z,99057.30
2017-12-26T06:36:16.038Z,99055.32
2017-12-26T06:38:43.439Z,99056.98
2017-12-26T06:41:10.817Z,99063.53
2017-12-26T06:43:38.214Z,99048.86
2017-12-26T06:46:05.599Z,99042.58
2017-12-26T06:48:32.997Z,99033.30
2017-12-26T06:51:00.391Z,99038.91
2017-12-26T06:53:27.783Z,99048.28
2017-12-26T06:55:55.162Z,99046.80
2017-12-26T06:58:22.555Z,99047.77
2017-12-26T07:00:49.944Z,99049.13
2017-12-26T07:03:17.438Z,99037.98
2017-12-26T07:05:44.832Z,99025.52
2017-12-26T07:08:12.231Z,99017.94
2017-12-26T07:10:39.611Z,99010.58
2017-12-26T07:13:07.006Z,98995.33
2017-12-26T07:15:34.392Z,99003.61
2017-12-26T07:18:01.787Z,98991.84
2017-12-26T07:20:34.923Z,99003.29
2017-12-26T07:23:02.335Z,99010.86
2017-12-26T07:25:29.740Z,99004.08
2017-12-26T07:27:57.118Z,98995.64
2017-12-26T07:30:24.507Z,98983.56
2017-12-26T07:32:51.887Z,98984.06
2017-12-26T07:35:19.271Z,99011.33
2017-12-26T07:37:46.667Z,99011.70
2017-12-26T07:40:14.066Z,99000.26
2017-12-26T07:42:41.526Z,99000.52
2017-12-26T07:45:09.015Z,99000.16
2017-12-26T07:47:36.394Z,99012.25
2017-12-26T07:50:03.820Z,99009.56
2017-12-26T07:52:31.206Z,99016.40
2017-12-26T07:54:58.633Z,99007.16
2017-12-26T07:57:26.006Z,99015.79
2017-12-26T07:59:53.399Z,99012.84
2017-12-26T08:02:20.807Z,99011.36
2017-12-26T08:04:48.195Z,99002.45
2017-12-26T08:07:15.584Z,99003.67
2017-12-26T08:09:42.982Z,99004.90
2017-12-26T08:12:10.375Z,98997.92
2017-12-26T08:14:37.787Z,98995.20
2017-12-26T08:17:05.203Z,99003.33
2017-12-26T08:19:32.655Z,98996.45
2017-12-26T08:22:00.047Z,99004.09
2017-12-26T08:24:27.519Z,99008.92
2017-12-26T08:26:54.918Z,98996.43
2017-12-26T08:29:22.310Z,99004.59
2017-12-26T08:31:49.767Z,98999.17
2017-12-26T08:34:17.156Z,99000.66
2017-12-26T08:36:44.541Z,99012.86
2017-12-26T08:39:11.941Z,99004.98
2017-12-26T08:41:39.325Z,99011.11
2017-12-26T08:44:06.723Z,99010.39
2017-12-26T08:46:34.101Z,99012.70
2017-12-26T08:49:01.489Z,99010.86
2017-12-26T08:51:28.875Z,99014.32
2017-12-26T08:53:56.284Z,99019.41
2017-12-26T08:56:23.663Z,99021.14
2017-12-26T08:58:51.055Z,99019.23
2017-12-26T09:01:18.527Z,99022.38
2017-12-26T09:03:45.923Z,99021.92
2017-12-26T09:06:13.436Z,99020.48
2017-12-26T09:08:40.901Z,99024.28
2017-12-26T09:11:08.275Z,99032.48
2017-12-26T09:13:35.667Z,99030.06
2017-12-26T09:16:03.079Z,99041.31
2017-12-26T09:18:30.465Z,99037.83
2017-12-26T09:20:57.855Z,99042.07
2017-12-26T09:23:25.239Z,99050.13
2017-12-26T09:25:52.630Z,99068.27
2017-12-26T09:28:20.015Z,99065.88
2017-12-26T09:30:47.402Z,99067.28
2017-12-26T09:33:14.791Z,99083.88
2017-12-26T09:35:42.188Z,99081.83
2017-12-26T09:38:09.571Z,99077.97
2017-12-26T09:40:37.001Z,99072.84
2017-12-26T09:43:04.379Z,99070.33
2017-12-26T09:45:31.772Z,99081.16
2017-12-26T09:47:59.146Z,99075.97
2017-12-26T09:50:26.539Z,99079.11
2017-12-26T09:52:53.915Z,99086.81
2017-12-26T09:55:21.310Z,99071.48
2017-12-26T09:57:48.731Z,99085.91
2017-12-26T10:00:16.148Z,99089.32
2017-12-26T10:02:44.328Z,99075.28
2017-12-26T10:05:11.777Z,99079.70
2017-12-26T10:07:39.156Z,99075.75
2017-12-26T10:10:06.547Z,99079.19
2017-12-26T10:12:33.975Z,99076.84
2017-12-26T10:15:01.370Z,99081.43
2017-12-26T10:17:28.747Z,99075.53
2017-12-26T10:19:56.135Z,99069.59
2017-12-26T10:22:23.530Z,99067.28
2017-12-26T10:24:50.916Z,99078.41
2017-12-26T10:27:18.348Z,99079.27
2017-12-26T10:29:45.737Z,99073.70
2017-12-26T10:32:13.124Z,99070.66
2017-12-26T10:34:40.516Z,99067.02
2017-12-26T10:37:07.908Z,99065.17
2017-12-26T10:39:35.300Z,99070.76
2017-12-26T10:42:02.680Z,99068.03
2017-12-26T10:44:30.071Z,99051.27
2017-12-26T10:46:57.452Z,99066.65
2017-12-26T10:49:24.844Z,99066.73
2017-12-26T10:51:52.324Z,99059.66
2017-12-26T10:54:19.711Z,99075.59
2017-12-26T10:56:47.096Z,99076.91
2017-12-26T10:59:14.487Z,99085.30
2017-12-26T11:01:41.898Z,99081.09
2017-12-26T11:04:09.300Z,99076.88
2017-12-26T11:06:36.688Z,99066.66
2017-12-26T11:09:04.096Z,99079.52
2017-12-26T11:11:31.489Z,99067.71
2017-12-26T11:13:58.872Z,99069.08
2017-12-26T11:16:26.272Z,99059.84
2017-12-26T11:18:53.728Z,99063.42
2017-12-26T11:21:21.152Z,99051.69
2017-12-26T11:23:48.704Z,99053.27
2017-12-26T11:26:16.191Z,99043.91
2017-12-26T11:28:43.598Z,99047.59
2017-12-26T11:31:10.983Z,99055.79
2017-12-26T11:33:38.378Z,99050.30
2017-12-26T11:36:05.767Z,99047.10
2017-12-26T11:38:33.152Z,99051.64
2017-12-26T11:41:00.547Z,99038.83
2017-12-26T11:43:27.938Z,99043.74
2017-12-26T11:45:55.323Z,99047.90
2017-12-26T11:48:22.795Z,99052.33
2017-12-26T11:50:50.192Z,99056.52
2017-12-26T11:53:17.588Z,99058.24
2017-12-26T11:55:45.068Z,99048.73
2017-12-26T11:58:12.459Z,99047.35
2017-12-26T12:00:39.856Z,99053.32
2017-12-26T12:03:07.242Z,99049.88
2017-12-26T12:05:34.636Z,99060.82
2017-12-26T12:08:02.016Z,99050.06
2017-12-26T12:10:29.416Z,99059.41
2017-12-26T12:12:56.799Z,99055.65
2017-12-26T12:17:50.866Z,99060.25
2017-12-26T12:20:18.269Z,99052.78
2017-12-26T12:22:45.652Z,99058.59
2017-12-26T12:25:13.052Z,99050.48
2017-12-26T12:27:40.445Z,99061.20
2017-12-26T12:30:07.880Z,99064.27
2017-12-26T12:32:35.269Z,99064.16
2017-12-26T12:35:02.655Z,99069.08
2017-12-26T12:37:30.044Z,99071.64
2017-12-26T12:39:57.439Z,99083.56
2017-12-26T12:42:24.883Z,99070.27
2017-12-26T12:44:52.287Z,99066.81
2017-12-26T12:47:19.673Z,99079.97
2017-12-26T12:49:47.070Z,99085.17
2017-12-26T12:52:14.448Z,99096.27
2017-12-26T12:54:41.840Z,99085.03
2017-12-26T12:57:09.229Z,99091.61
2017-12-26T12:59:36.619Z,99092.69
2017-12-26T13:02:04.039Z,99089.97
2017-12-26T13:04:31.419Z,99089.39
2017-12-26T13:06:58.821Z,99088.80
2017-12-26T13:09:26.210Z,99088.81
2017-12-26T13:11:53.608Z,99090.98
2017-12-26T13:14:20.999Z,99105.64
2017-12-26T13:16:48.516Z,99105.50
2017-12-26T13:19:15.904Z,99098.91
2017-12-26T13:21:43.308Z,99096.45
2017-12-26T13:24:10.704Z,99099.26
2017-12-26T13:26:38.094Z,99099.23
2017-12-26T13:29:05.482Z,99096.70
2017-12-26T13:31:32.868Z,99099.39
2017-12-26T13:34:00.263Z,99096.94
2017-12-26T13:36:27.704Z,99096.67
2017-12-26T13:38:55.079Z,99093.34
2017-12-26T13:41:22.463Z,99098.75
2017-12-26T13:43:49.860Z,99090.67
2017-12-26T13:46:17.239Z,99091.77
2017-12-26T13:48:44.643Z,99097.18
2017-12-26T13:51:12.056Z,99100.55
2017-12-26T13:53:39.452Z,99097.48
2017-12-26T13:56:06.848Z,99102.23
2017-12-26T13:58:34.227Z,99114.09
2017-12-26T14:01:01.623Z,99113.46
2017-12-26T14:03:29.007Z,99121.63
2017-12-26T14:05:56.481Z,99110.66
2017-12-26T14:08:23.855Z,99120.24
2017-12-26T14:10:51.248Z,99111.72
2017-12-26T14:13:18.631Z,99121.02
2017-12-26T14:15:46.105Z,99124.77
2017-12-26T14:18:13.480Z,99120.28
2017-12-26T14:20:40.866Z,99128.78
2017-12-26T14:23:08.242Z,99135.35
2017-12-26T14:25:35.634Z,99133.99
2017-12-26T14:28:03.010Z,99124.51
2017-12-26T14:30:30.398Z,99128.20
2017-12-26T14:32:57.785Z,99137.28
2017-12-26T14:35:25.258Z,99124.69
2017-12-26T14:37:52.658Z,99129.72
2017-12-26T14:40:20.135Z,99129.70
2017-12-26T14:42:47.514Z,99126.25
2017-12-26T14:45:14.932Z,99141.19
2017-12-26T14:47:42.307Z,99140.03
2017-12-26T14:50:09.700Z,99141.77
2017-12-26T14:52:37.077Z,99133.28
2017-12-26T14:55:04.466Z,99142.70
2017-12-26T14:57:31.855Z,99135.81
2017-12-26T14:59:59.240Z,99152.99
2017-12-26T15:02:26.627Z,99141.73
2017-12-26T15:04:54.012Z,99148.13
2017-12-26T15:07:21.401Z,99156.68
2017-12-26T15:09:48.782Z,99148.44
2017-12-26T15:12:16.170Z,99157.19
2017-12-26T15:14:43.554Z,99156.23
2017-12-26T15:17:10.936Z,99159.80
2017-12-26T15:19:38.353Z,99158.45
2017-12-26T15:22:05.788Z,99156.27
2017-12-26T15:24:33.170Z,99150.73
2017-12-26T15:27:00.551Z,99158.09
2017-12-26T15:29:27.939Z,99160.30
2017-12-26T15:31:55.331Z,99159.34
2017-12-26T15:34:22.732Z,99157.70
2017-12-26T15:36:50.123Z,99156.02
2017-12-26T15:39:17.507Z,99157.17
2017-12-26T15:41:44.915Z,99159.54
2017-12-26T15:44:12.301Z,99160.18
2017-12-26T15:46:39.695Z,99162.52
2017-12-26T15:49:07.079Z,99161.34
2017-12-26T15:51:34.471Z,99171.93
2017-12-26T15:54:01.918Z,99168.83
2017-12-26T15:56:29.306Z,99172.15
2017-12-26T15:58:56.682Z,99172.77
2017-12-26T16:01:24.070Z,99183.23
2017-12-26T16:03:51.455Z,99172.11
2017-12-26T16:06:18.842Z,99180.22
2017-12-26T16:08:46.329Z,99178.69
2017-12-26T16:11:13.704Z,99175.23
2017-12-26T16:13:41.079Z,99184.20
2017-12-26T16:16:08.490Z,99201.41
2017-12-26T16:18:35.866Z,99185.86
2017-12-26T16:21:03.309Z,99185.67
2017-12-26T16:23:30.683Z,99189.36
2017-12-26T16:25:58.075Z,99191.03
2017-12-26T16:28:25.554Z,99193.98
2017-12-26T16:30:52.959Z,99184.00
2017-12-26T16:33:20.371Z,99200.27
2017-12-26T16:35:47.760Z,99197.61
2017-12-26T16:38:15.315Z,99204.16
2017-12-26T16:40:42.703Z,99198.13
2017-12-26T16:43:10.080Z,99197.75
2017-12-26T16:45:37.466Z,99203.54
2017-12-26T16:48:04.855Z,99203.94
2017-12-26T16:50:32.231Z,99213.86
2017-12-26T16:52:59.618Z,99209.86
2017-12-26T16:55:27.023Z,99209.14
2017-12-26T16:57:54.410Z,99219.70
2017-12-26T17:00:21.792Z,99219.62
2017-12-26T17:02:49.216Z,99220.66
2017-12-26T17:05:16.590Z,99211.52
2017-12-26T17:07:43.983Z,99218.88
2017-12-26T17:10:11.370Z,99211.64
2017-12-26T17:12:38.766Z,99207.13
2017-12-26T17:15:06.151Z,99200.84
2017-12-26T17:17:33.546Z,99203.30
2017-12-26T17:20:00.918Z,99200.67
2017-12-26T17:22:28.314Z,99202.97
2017-12-26T17:24:55.694Z,99203.91
2017-12-26T17:27:23.095Z,99196.04
2017-12-26T17:29:50.537Z,99202.22
2017-12-26T17:32:17.923Z,99198.55
2017-12-26T17:34:45.307Z,99193.31
2017-12-26T17:37:12.874Z,99199.45
2017-12-26T17:39:40.258Z,99197.66
2017-12-26T17:42:07.646Z,99204.93
2017-12-26T17:44:35.045Z,99203.98
2017-12-26T17:47:02.437Z,99206.51
2017-12-26T17:49:29.811Z,99207.49
2017-12-26T17:51:57.203Z,99197.70
2017-12-26T17:54:24.584Z,99193.41
2017-12-26T17:56:51.976Z,99195.91
2017-12-26T17:59:19.350Z,99195.05
2017-12-26T18:01:46.743Z,99196.74
2017-12-26T18:04:14.125Z,99192.52
2017-12-26T18:06:41.511Z,99194.21
2017-12-26T18:09:08.901Z,99192.59
2017-12-26T18:11:36.291Z,99196.73
2017-12-26T18:14:03.663Z,99199.33
2017-12-26T18:16:31.062Z,99204.03
2017-12-26T18:18:58.440Z,99198.97
2017-12-26T18:21:25.823Z,99194.11
2017-12-26T18:23:53.675Z,99192.74
2017-12-26T18:26:21.068Z,99196.59
2017-12-26T18:31:17.034Z,99201.47
2017-12-26T18:33:44.417Z,99196.62
2017-12-26T18:36:11.809Z,99194.66
2017-12-26T18:38:39.198Z,99199.53
2017-12-26T18:41:06.582Z,99199.16
2017-12-26T18:43:33.973Z,99191.61
2017-12-26T18:46:01.366Z,99204.47
2017-12-26T18:48:28.795Z,99206.20
2017-12-26T18:50:56.159Z,99194.95
2017-12-26T18:53:23.542Z,99200.11
2017-12-26T18:55:50.925Z,99192.22
2017-12-26T18:58:18.329Z,99184.50
2017-12-26T19:00:45.710Z,99185.06
2017-12-26T19:03:13.106Z,99180.22
2017-12-26T19:05:40.481Z,99174.44
2017-12-26T19:08:07.997Z,99175.48
2017-12-26T19:10:35.359Z,99181.94
2017-12-26T19:13:02.738Z,99172.00
2017-12-26T19:15:30.122Z,99170.00
2017-12-26T19:17:57.593Z,99168.78
2017-12-26T19:20:25.029Z,99168.60
2017-12-26T19:22:52.438Z,99173.24
2017-12-26T19:25:19.825Z,99174.34
2017-12-26T19:27:47.210Z,99165.86
2017-12-26T19:30:14.600Z,99167.44
2017-12-26T19:32:41.987Z,99168.19
2017-12-26T19:35:09.361Z,99160.56
2017-12-26T19:37:36.834Z,99161.98
2017-12-26T19:40:04.210Z,99164.91
2017-12-26T19:42:31.599Z,99159.84
2017-12-26T19:44:58.970Z,99154.83
2017-12-26T19:47:26.490Z,99153.00
2017-12-26T19:49:53.878Z,99148.65
2017-12-26T19:52:21.261Z,99148.00
2017-12-26T19:54:48.663Z,99141.95
2017-12-26T19:57:16.050Z,99143.69
2017-12-26T19:59:43.430Z,99142.55
2017-12-26T20:02:10.850Z,99145.29
2017-12-26T20:04:38.226Z,99140.34
2017-12-26T20:07:05.917Z,99146.80
2017-12-26T20:09:33.339Z,99133.27
2017-12-26T20:12:00.730Z,99136.47
2017-12-26T20:14:28.127Z,99140.07
2017-12-26T20:16:55.511Z,99136.95
2017-12-26T20:19:22.890Z,99131.92
2017-12-26T20:24:11.339Z,99135.89
2017-12-26T20:26:38.728Z,99133.50
2017-12-26T20:29:06.104Z,99125.94
2017-12-26T20:31:33.600Z,99122.58
2017-12-26T20:34:00.977Z,99118.34
2017-12-26T20:36:28.391Z,99106.75
2017-12-26T20:38:55.802Z,99098.27
2017-12-26T20:41:23.206Z,99100.28
2017-12-26T20:43:50.582Z,99097.91
2017-12-26T20:46:17.967Z,99092.88
2017-12-26T20:48:45.372Z,99089.01
2017-12-26T20:51:12.759Z,99090.02
2017-12-26T20:53:40.238Z,99094.19
2017-12-26T20:56:07.613Z,99095.06
2017-12-26T20:58:35.011Z,99093.11
2017-12-26T21:01:02.402Z,99098.71
2017-12-26T21:03:29.790Z,99092.38
2017-12-26T21:05:57.171Z,99086.33
2017-12-26T21:08:24.563Z,99086.21
2017-12-26T21:10:52.029Z,99077.69
2017-12-26T21:13:19.435Z,99078.63
2017-12-26T21:15:46.847Z,99073.38
2017-12-26T21:18:14.226Z,99071.42
2017-12-26T21:20:41.610Z,99071.30
2017-12-26T21:23:09.011Z,99069.81
2017-12-26T21:25:36.398Z,99067.41
2017-12-26T21:28:03.787Z,99068.38
2017-12-26T21:30:31.258Z,99072.10
2017-12-26T21:32:58.674Z,99067.59
2017-12-26T21:35:26.067Z,99065.83
2017-12-26T21:37:53.446Z,99050.83
2017-12-26T21:40:20.849Z,99054.96
2017-12-26T21:42:48.230Z,99047.92
2017-12-26T21:45:15.615Z,99041.19
2017-12-26T21:47:43.041Z,99037.09
2017-12-26T21:50:10.499Z,99043.52
2017-12-26T21:52:37.886Z,99033.13
2017-12-26T21:55:05.266Z,99033.67
2017-12-26T21:57:32.655Z,99031.59
2017-12-26T22:00:00.051Z,99027.54
2017-12-26T22:02:27.490Z,99029.00
2017-12-26T22:04:54.861Z,99028.82
2017-12-26T22:07:22.251Z,99031.55
2017-12-26T22:09:49.682Z,99036.05
2017-12-26T22:12:17.072Z,99032.74
2017-12-26T22:14:44.449Z,99033.92
2017-12-26T22:17:11.832Z,99033.19
2017-12-26T22:19:39.243Z,99035.50
2017-12-26T22:22:06.617Z,99030.92
2017-12-26T22:24:34.006Z,99023.30
2017-12-26T22:27:01.391Z,99024.20
2017-12-26T22:29:29.087Z,99019.35
2017-12-26T22:31:56.473Z,99016.42
2017-12-26T22:34:23.868Z,99013.62
2017-12-26T22:36:51.264Z,99012.48
2017-12-26T22:39:18.667Z,99012.50
2017-12-26T22:41:46.049Z,99008.52
2017-12-26T22:44:13.430Z,99006.92
2017-12-26T22:46:40.822Z,99006.86
2017-12-26T22:49:08.426Z,99004.98
2017-12-26T22:51:35.817Z,98999.70
2017-12-26T22:54:03.210Z,98994.91
2017-12-26T22:56:30.598Z,98997.02
2017-12-26T22:58:57.991Z,98996.61
2017-12-26T23:01:25.369Z,98991.88
2017-12-26T23:03:52.768Z,98986.29
2017-12-26T23:06:20.150Z,98985.13
2017-12-26T23:08:47.548Z,98979.03
2017-12-26T23:11:14.922Z,98976.30
2017-12-26T23:13:42.310Z,98977.09
2017-12-26T23:16:15.214Z,98974.63
2017-12-26T23:18:42.611Z,98971.45
2017-12-26T23:21:09.989Z,98964.97
2017-12-26T23:23:43.020Z,98961.66
2017-12-26T23:26:16.098Z,98956.20
2017-12-26T23:28:49.069Z,98953.31
2017-12-26T23:31:22.186Z,98962.00
2017-12-26T23:33:55.214Z,98955.01
2017-12-26T23:36:28.238Z,98941.80
2017-12-26T23:39:01.202Z,98931.85
2017-12-26T23:41:34.203Z,98929.08
2017-12-26T23:47:09.967Z,98918.35
2017-12-26T23:49:42.787Z,98912.88
2017-12-26T23:52:15.776Z,98908.01
2017-12-26T23:54:48.781Z,98913.08
2017-12-26T23:57:21.794Z,98906.34
2017-12-26T23:59:54.814Z,98912.43
